createdAt,value
2023-07-05T00:00:10.446Z,79.63
2023-07-05T00:03:14.935Z,79.76
2023-07-05T00:06:19.885Z,79.70
2023-07-05T00:09:22.213Z,79.48
2023-07-05T00:12:24.464Z,79.33
2023-07-05T00:15:28.025Z,79.19
2023-07-05T00:18:33.370Z,78.32
2023-07-05T00:21:36.153Z,78.61
2023-07-05T00:24:43.543Z,78.69
2023-07-05T00:27:48.891Z,78.54
2023-07-05T00:30:51.396Z,78.95
2023-07-05T00:33:53.703Z,79.09
2023-07-05T00:37:00.697Z,79.67
2023-07-05T00:40:03.939Z,79.96
2023-07-05T00:43:11.062Z,79.98
2023-07-05T00:46:28.294Z,80.51
2023-07-05T00:49:38.460Z,80.74
2023-07-05T00:52:40.808Z,80.94
2023-07-05T00:55:56.413Z,81.03
2023-07-05T00:59:00.037Z,81.21
2023-07-05T01:02:03.966Z,81.11
2023-07-05T01:05:08.838Z,81.34
2023-07-05T01:08:13.404Z,81.97
2023-07-05T01:11:25.159Z,82.00
2023-07-05T01:14:27.412Z,82.02
2023-07-05T01:17:50.978Z,81.63
2023-07-05T01:20:53.302Z,81.69
2023-07-05T01:24:31.637Z,81.16
2023-07-05T01:28:02.723Z,81.73
2023-07-05T01:31:45.410Z,81.85
2023-07-05T01:35:18.217Z,82.01
2023-07-05T01:38:20.569Z,82.23
2023-07-05T01:41:23.899Z,82.27
2023-07-05T01:44:29.005Z,82.78
2023-07-05T01:48:22.371Z,82.76
2023-07-05T01:51:29.547Z,82.93
2023-07-05T01:55:05.281Z,82.67
2023-07-05T01:58:16.059Z,83.07
2023-07-05T02:01:22.683Z,82.86
2023-07-05T02:04:27.597Z,83.36
2023-07-05T02:07:32.068Z,83.30
2023-07-05T02:10:34.755Z,84.25
2023-07-05T02:13:37.186Z,84.48
2023-07-05T02:16:40.239Z,84.18
2023-07-05T02:19:42.532Z,83.83
2023-07-05T02:22:46.968Z,83.58
2023-07-05T02:25:53.262Z,84.26
2023-07-05T02:28:58.190Z,84.81
2023-07-05T02:32:01.427Z,84.83
2023-07-05T02:35:06.444Z,85.84
2023-07-05T02:38:08.755Z,84.72
2023-07-05T02:41:15.897Z,84.32
2023-07-05T02:44:22.993Z,84.18
2023-07-05T02:47:25.429Z,83.77
2023-07-05T02:50:30.145Z,84.37
2023-07-05T02:53:37.198Z,84.50
2023-07-05T02:56:44.244Z,84.91
2023-07-05T02:59:46.666Z,84.27
2023-07-05T03:02:52.755Z,84.08
2023-07-05T03:06:00.314Z,83.57
2023-07-05T03:09:04.825Z,84.07
2023-07-05T03:12:08.290Z,84.09
2023-07-05T03:15:13.869Z,83.70
2023-07-05T03:18:24.730Z,83.14
2023-07-05T03:21:29.435Z,83.14
2023-07-05T03:24:33.987Z,83.00
2023-07-05T03:27:39.058Z,83.40
2023-07-05T03:30:44.349Z,82.84
2023-07-05T03:33:56.860Z,83.08
2023-07-05T03:37:03.932Z,83.77
2023-07-05T03:40:09.582Z,83.45
2023-07-05T03:43:12.957Z,82.94
2023-07-05T03:46:20.138Z,83.13
2023-07-05T03:49:22.513Z,83.21
2023-07-05T03:52:24.966Z,82.93
2023-07-05T03:55:29.571Z,82.65
2023-07-05T03:58:35.258Z,82.45
2023-07-05T04:01:40.191Z,82.73
2023-07-05T04:04:45.621Z,81.95
2023-07-05T04:07:50.221Z,81.94
2023-07-05T04:10:55.261Z,81.27
2023-07-05T04:13:58.109Z,81.21
2023-07-05T04:17:02.634Z,80.47
2023-07-05T04:20:10.744Z,80.28
2023-07-05T04:23:13.126Z,80.01
2023-07-05T04:26:23.668Z,79.66
2023-07-05T04:29:26.021Z,79.11
2023-07-05T04:32:28.482Z,78.28
2023-07-05T04:35:34.610Z,77.54
2023-07-05T04:38:39.274Z,77.09
2023-07-05T04:41:41.703Z,75.89
2023-07-05T04:44:46.440Z,75.69
2023-07-05T04:47:51.061Z,75.27
2023-07-05T04:50:56.910Z,74.64
2023-07-05T04:53:59.625Z,73.78
2023-07-05T04:57:01.926Z,72.95
2023-07-05T05:00:04.706Z,72.30
2023-07-05T05:03:09.389Z,71.45
2023-07-05T05:06:11.991Z,71.16
2023-07-05T05:09:16.648Z,70.50
2023-07-05T05:12:18.979Z,69.60
2023-07-05T05:15:21.403Z,69.24
2023-07-05T05:18:29.494Z,68.66
2023-07-05T05:21:31.817Z,68.31
2023-07-05T05:24:34.184Z,67.16
2023-07-05T05:27:36.610Z,66.49
2023-07-05T05:30:41.949Z,65.41
2023-07-05T05:33:45.531Z,65.42
2023-07-05T05:36:50.169Z,65.49
2023-07-05T05:39:52.440Z,65.56
2023-07-05T05:42:57.441Z,64.60
2023-07-05T05:45:59.769Z,63.92
2023-07-05T05:49:06.723Z,61.89
2023-07-05T05:52:09.042Z,61.02
2023-07-05T05:55:13.792Z,60.36
2023-07-05T05:58:16.053Z,60.12
2023-07-05T06:01:21.305Z,59.12
2023-07-05T06:04:23.643Z,58.49
2023-07-05T06:07:31.074Z,57.16
2023-07-05T06:10:33.457Z,56.12
2023-07-05T06:13:38.349Z,55.30
2023-07-05T06:16:40.650Z,55.15
2023-07-05T06:19:45.500Z,54.54
2023-07-05T06:22:47.684Z,53.52
2023-07-05T06:25:53.344Z,52.49
2023-07-05T06:29:01.256Z,52.68
2023-07-05T06:32:06.283Z,53.96
2023-07-05T06:35:08.752Z,52.50
2023-07-05T06:38:11.014Z,51.68
2023-07-05T06:41:13.312Z,50.72
2023-07-05T06:44:15.619Z,49.32
2023-07-05T06:47:17.995Z,49.87
2023-07-05T06:50:30.363Z,48.66
2023-07-05T06:53:48.086Z,47.13
2023-07-05T06:56:54.008Z,47.29
2023-07-05T06:59:58.752Z,46.23
2023-07-05T07:03:03.937Z,45.59
2023-07-05T07:06:11.503Z,46.46
2023-07-05T07:09:13.947Z,45.46
2023-07-05T07:12:16.263Z,44.15
2023-07-05T07:15:18.520Z,43.24
2023-07-05T07:18:25.583Z,42.96
2023-07-05T07:21:28.285Z,42.15
2023-07-05T07:24:35.537Z,41.83
2023-07-05T07:27:40.450Z,42.37
2023-07-05T07:30:45.262Z,41.96
2023-07-05T07:33:50.868Z,42.34
2023-07-05T07:36:53.264Z,40.88
2023-07-05T07:39:57.699Z,40.61
2023-07-05T07:43:02.324Z,39.67
2023-07-05T07:46:09.757Z,40.56
2023-07-05T07:49:14.053Z,41.25
2023-07-05T07:52:21.588Z,39.56
2023-07-05T07:55:26.272Z,37.62
2023-07-05T07:58:32.330Z,37.28
2023-07-05T08:01:41.652Z,37.52
2023-07-05T08:04:48.498Z,36.79
2023-07-05T08:07:53.363Z,35.68
2023-07-05T08:10:55.766Z,36.28
2023-07-05T08:13:58.378Z,42.44
2023-07-05T08:17:00.938Z,39.39
2023-07-05T08:20:05.952Z,37.20
2023-07-05T08:23:08.943Z,35.27
2023-07-05T08:36:15.105Z,32.30
2023-07-05T08:39:17.565Z,31.65
2023-07-05T08:42:58.091Z,31.54
2023-07-05T08:46:06.744Z,33.89
2023-07-05T08:49:20.813Z,34.96
2023-07-05T08:52:27.276Z,35.08
2023-07-05T08:55:57.035Z,32.98
2023-07-05T08:59:06.750Z,33.20
2023-07-05T09:02:11.325Z,34.43
2023-07-05T09:05:20.631Z,33.90
2023-07-05T09:08:49.461Z,33.60
2023-07-05T09:11:51.672Z,32.71
2023-07-05T09:15:13.540Z,33.14
2023-07-05T09:18:32.269Z,33.32
2023-07-05T09:21:46.759Z,32.38
2023-07-05T09:24:53.075Z,32.57
2023-07-05T09:28:17.368Z,33.19
2023-07-05T09:31:25.021Z,33.56
2023-07-05T09:34:39.220Z,35.01
2023-07-05T09:37:54.030Z,38.02
2023-07-05T09:41:05.435Z,39.40
2023-07-05T09:44:13.531Z,38.41
2023-07-05T09:47:19.945Z,38.61
2023-07-05T09:50:22.850Z,39.57
2023-07-05T09:53:53.230Z,38.68
2023-07-05T09:57:10.547Z,38.59
2023-07-05T10:00:32.738Z,39.14
2023-07-05T10:03:36.923Z,38.11
2023-07-05T10:06:45.623Z,36.62
2023-07-05T10:10:09.097Z,36.14
2023-07-05T10:13:35.917Z,35.48
2023-07-05T10:17:08.096Z,35.25
2023-07-05T10:20:24.476Z,34.93
2023-07-05T10:23:27.674Z,37.28
2023-07-05T10:26:35.826Z,36.74
2023-07-05T10:29:42.145Z,36.52
2023-07-05T10:32:47.561Z,37.32
2023-07-05T10:36:05.725Z,35.43
2023-07-05T10:39:11.264Z,34.71
2023-07-05T10:42:13.738Z,34.75
2023-07-05T10:45:19.010Z,35.26
2023-07-05T10:48:31.924Z,36.70
2023-07-05T10:51:38.316Z,36.65
2023-07-05T10:55:04.072Z,36.47
2023-07-05T10:58:19.963Z,37.39
2023-07-05T11:01:40.521Z,37.54
2023-07-05T11:04:46.071Z,37.88
2023-07-05T11:07:54.985Z,37.56
2023-07-05T11:11:05.588Z,36.87
2023-07-05T11:14:18.246Z,36.87
2023-07-05T11:17:31.387Z,37.63
2023-07-05T11:20:33.644Z,36.93
2023-07-05T11:23:41.978Z,36.27
2023-07-05T11:26:47.610Z,36.93
2023-07-05T11:29:53.174Z,36.79
2023-07-05T11:33:07.926Z,35.25
2023-07-05T11:36:40.588Z,35.71
2023-07-05T11:39:49.887Z,35.36
2023-07-05T11:42:55.031Z,34.98
2023-07-05T11:46:04.738Z,36.23
2023-07-05T11:49:21.540Z,36.65
2023-07-05T11:52:35.043Z,36.10
2023-07-05T11:55:45.591Z,36.68
2023-07-05T11:58:52.124Z,37.71
2023-07-05T12:01:54.589Z,37.48
2023-07-05T12:05:00.720Z,37.00
2023-07-05T12:08:23.324Z,36.67
2023-07-05T12:11:32.052Z,35.41
2023-07-05T12:14:34.457Z,35.59
2023-07-05T12:17:40.171Z,35.91
2023-07-05T12:20:47.170Z,35.39
2023-07-05T12:23:55.637Z,35.03
2023-07-05T12:26:58.316Z,34.99
2023-07-05T12:30:09.911Z,35.82
2023-07-05T12:33:23.247Z,35.29
2023-07-05T12:36:25.751Z,34.94
2023-07-05T12:39:28.180Z,34.86
2023-07-05T12:42:32.941Z,35.41
2023-07-05T12:45:42.035Z,35.16
2023-07-05T12:48:46.575Z,34.66
2023-07-05T12:51:54.624Z,34.69
2023-07-05T12:54:59.401Z,34.82
2023-07-05T12:58:07.393Z,35.21
2023-07-05T13:01:19.446Z,35.87
2023-07-05T13:04:23.530Z,36.12
2023-07-05T13:07:28.965Z,36.85
2023-07-05T13:10:40.789Z,35.41
2023-07-05T13:13:43.286Z,35.84
2023-07-05T13:16:53.643Z,36.27
2023-07-05T13:20:19.810Z,35.95
2023-07-05T13:23:32.814Z,34.83
2023-07-05T13:26:41.920Z,35.84
2023-07-05T13:29:44.269Z,35.69
2023-07-05T13:32:53.972Z,35.28
2023-07-05T13:35:56.508Z,35.53
2023-07-05T13:39:05.722Z,36.14
2023-07-05T13:42:17.209Z,35.34
2023-07-05T13:45:27.407Z,36.56
2023-07-05T13:48:30.828Z,35.44
2023-07-05T13:51:34.337Z,36.37
2023-07-05T13:54:36.641Z,36.01
2023-07-05T13:57:38.990Z,35.36
2023-07-05T14:00:48.511Z,36.03
2023-07-05T14:04:00.051Z,35.10
2023-07-05T14:07:06.329Z,35.74
2023-07-05T14:10:11.390Z,35.46
2023-07-05T14:13:21.726Z,35.42
2023-07-05T14:16:25.965Z,36.19
2023-07-05T14:19:30.833Z,35.72
2023-07-05T14:22:33.180Z,35.06
2023-07-05T14:25:41.295Z,35.42
2023-07-05T14:28:46.154Z,34.89
2023-07-05T14:31:49.407Z,34.60
2023-07-05T14:34:51.896Z,35.78
2023-07-05T14:37:57.197Z,35.33
2023-07-05T14:41:04.884Z,36.35
2023-07-05T14:44:11.545Z,36.63
2023-07-05T14:47:14.453Z,36.77
2023-07-05T14:50:22.771Z,36.38
2023-07-05T14:53:32.149Z,35.65
2023-07-05T14:56:34.667Z,36.39
2023-07-05T14:59:39.890Z,36.78
2023-07-05T15:02:49.737Z,36.35
2023-07-05T15:05:54.553Z,36.38
2023-07-05T15:08:56.909Z,36.69
2023-07-05T15:11:59.205Z,37.03
2023-07-05T15:15:12.075Z,37.15
2023-07-05T15:18:14.371Z,37.37
2023-07-05T15:21:21.576Z,37.07
2023-07-05T15:24:24.928Z,36.56
2023-07-05T15:27:28.421Z,36.73
2023-07-05T15:30:36.780Z,36.88
2023-07-05T15:33:39.131Z,36.96
2023-07-05T15:36:43.637Z,37.04
2023-07-05T15:39:48.275Z,37.28
2023-07-05T15:42:53.373Z,36.74
2023-07-05T15:46:00.559Z,37.08
2023-07-05T15:49:02.914Z,36.17
2023-07-05T15:52:10.745Z,36.71
2023-07-05T15:55:15.349Z,37.36
2023-07-05T15:58:21.076Z,36.86
2023-07-05T16:01:25.996Z,36.88
2023-07-05T16:04:28.718Z,36.67
2023-07-05T16:07:31.746Z,36.11
2023-07-05T16:10:39.767Z,35.87
2023-07-05T16:13:45.850Z,36.57
2023-07-05T16:16:49.315Z,37.05
2023-07-05T16:19:56.338Z,36.91
2023-07-05T16:22:58.907Z,36.53
2023-07-05T16:26:01.245Z,37.21
2023-07-05T16:29:06.177Z,37.17
2023-07-05T16:32:11.994Z,37.46
2023-07-05T16:35:14.766Z,37.66
2023-07-05T16:38:17.701Z,37.70
2023-07-05T16:41:24.766Z,37.61
2023-07-05T16:44:27.714Z,37.33
2023-07-05T16:47:30.630Z,37.76
2023-07-05T16:50:33.104Z,38.32
2023-07-05T16:53:40.426Z,38.53
2023-07-05T16:56:47.387Z,38.57
2023-07-05T16:59:51.902Z,39.02
2023-07-05T17:02:56.706Z,39.20
2023-07-05T17:06:03.756Z,39.31
2023-07-05T17:09:06.737Z,39.57
2023-07-05T17:12:17.088Z,39.84
2023-07-05T17:15:19.474Z,39.77
2023-07-05T17:18:24.056Z,39.81
2023-07-05T17:21:28.820Z,40.00
2023-07-05T17:24:33.610Z,40.18
2023-07-05T17:27:36.021Z,40.10
2023-07-05T17:30:41.492Z,40.06
2023-07-05T17:33:44.968Z,40.14
2023-07-05T17:36:53.195Z,40.50
2023-07-05T17:39:56.050Z,39.94
2023-07-05T17:43:01.166Z,40.95
2023-07-05T17:46:12.380Z,40.77
2023-07-05T17:49:17.350Z,40.78
2023-07-05T17:52:19.713Z,41.44
2023-07-05T17:55:22.115Z,41.73
2023-07-05T17:58:24.393Z,41.79
2023-07-05T18:01:30.694Z,41.92
2023-07-05T18:04:35.509Z,41.96
2023-07-05T18:07:40.006Z,42.33
2023-07-05T18:10:42.283Z,42.26
2023-07-05T18:13:44.951Z,42.49
2023-07-05T18:16:47.261Z,42.21
2023-07-05T18:19:49.563Z,42.61
2023-07-05T18:22:51.907Z,42.96
2023-07-05T18:25:55.570Z,42.92
2023-07-05T18:28:58.003Z,43.63
2023-07-05T18:32:00.340Z,43.74
2023-07-05T18:35:04.876Z,44.19
2023-07-05T18:38:12.376Z,44.61
2023-07-05T18:41:17.326Z,44.33
2023-07-05T18:44:22.064Z,44.73
2023-07-05T18:47:25.516Z,44.84
2023-07-05T18:50:31.978Z,45.05
2023-07-05T18:53:44.276Z,45.24
2023-07-05T18:56:46.701Z,45.52
2023-07-05T18:59:49.263Z,45.71
2023-07-05T19:02:51.887Z,45.56
2023-07-05T19:06:00.155Z,46.27
2023-07-05T19:09:03.399Z,46.45
2023-07-05T19:12:06.354Z,46.67
2023-07-05T19:15:10.437Z,46.51
2023-07-05T19:18:15.631Z,47.08
2023-07-05T19:21:19.194Z,47.70
2023-07-05T19:24:21.515Z,48.05
2023-07-05T19:27:26.349Z,48.40
2023-07-05T19:30:31.410Z,48.10
2023-07-05T19:33:34.131Z,48.81
2023-07-05T19:36:36.642Z,49.05
2023-07-05T19:39:38.989Z,48.69
2023-07-05T19:42:41.281Z,49.30
2023-07-05T19:45:46.205Z,49.35
2023-07-05T19:48:51.453Z,49.54
2023-07-05T19:51:58.426Z,49.73
2023-07-05T19:55:00.744Z,49.91
2023-07-05T19:58:04.229Z,50.62
2023-07-05T20:01:07.274Z,50.89
2023-07-05T20:04:11.784Z,51.31
2023-07-05T20:07:14.290Z,51.67
2023-07-05T20:10:17.285Z,51.60
2023-07-05T20:13:21.811Z,51.85
2023-07-05T20:16:26.207Z,52.14
2023-07-05T20:19:30.649Z,52.79
2023-07-05T20:22:35.621Z,53.09
2023-07-05T20:25:37.964Z,53.30
2023-07-05T20:28:43.174Z,53.36
2023-07-05T20:31:46.551Z,53.44
2023-07-05T20:34:51.447Z,53.52
2023-07-05T20:38:01.154Z,53.72
2023-07-05T20:41:03.767Z,54.00
2023-07-05T20:44:10.325Z,54.32
2023-07-05T20:47:19.345Z,54.63
2023-07-05T20:50:26.392Z,54.91
2023-07-05T20:53:29.244Z,55.18
2023-07-05T20:56:33.715Z,55.33
2023-07-05T20:59:38.163Z,55.12
2023-07-05T21:02:40.698Z,55.59
2023-07-05T21:05:46.811Z,55.63
2023-07-05T21:08:49.265Z,55.63
2023-07-05T21:11:51.583Z,55.90
2023-07-05T21:14:56.352Z,55.81
2023-07-05T21:18:02.249Z,56.00
2023-07-05T21:21:10.715Z,55.56
2023-07-05T21:24:15.785Z,55.61
2023-07-05T21:27:18.032Z,55.37
2023-07-05T21:30:24.572Z,56.21
2023-07-05T21:33:28.463Z,55.91
2023-07-05T21:36:34.012Z,55.99
2023-07-05T21:39:38.302Z,56.19
2023-07-05T21:42:42.811Z,56.53
2023-07-05T21:45:50.144Z,56.58
2023-07-05T21:48:52.491Z,57.11
2023-07-05T21:51:55.849Z,57.22
2023-07-05T21:55:00.658Z,57.01
2023-07-05T21:58:02.915Z,56.56
2023-07-05T22:01:08.087Z,56.42
2023-07-05T22:04:10.666Z,56.14
2023-07-05T22:07:14.506Z,56.16
2023-07-05T22:10:24.717Z,55.90
2023-07-05T22:13:28.324Z,56.55
2023-07-05T22:16:34.005Z,56.77
2023-07-05T22:19:39.406Z,56.86
2023-07-05T22:22:44.756Z,57.04
2023-07-05T22:25:47.149Z,57.33
2023-07-05T22:28:49.916Z,57.88
2023-07-05T22:31:57.340Z,58.08
2023-07-05T22:35:02.969Z,58.14
2023-07-05T22:38:07.731Z,58.37
2023-07-05T22:41:14.051Z,58.75
2023-07-05T22:44:20.962Z,59.30
2023-07-05T22:47:27.886Z,58.11
2023-07-05T22:50:30.380Z,57.78
2023-07-05T22:53:33.396Z,57.82
2023-07-05T22:56:38.210Z,57.34
2023-07-05T22:59:40.577Z,57.10
2023-07-05T23:02:47.924Z,57.29
2023-07-05T23:05:50.324Z,57.57
2023-07-05T23:08:53.599Z,57.98
2023-07-05T23:12:00.198Z,57.73
2023-07-05T23:15:08.607Z,58.40
2023-07-05T23:18:11.087Z,58.33
2023-07-05T23:21:17.989Z,57.97
2023-07-05T23:24:22.913Z,57.91
2023-07-05T23:27:25.261Z,57.80
2023-07-05T23:30:30.152Z,58.14
2023-07-05T23:33:34.177Z,58.24
2023-07-05T23:36:42.938Z,58.02
2023-07-05T23:39:47.529Z,58.17
2023-07-05T23:42:52.758Z,58.38
2023-07-05T23:46:03.152Z,57.99
2023-07-05T23:49:07.328Z,57.70
2023-07-05T23:52:09.679Z,57.89
2023-07-05T23:55:13.117Z,57.72
2023-07-05T23:58:17.832Z,57.56
